sensor_id;sensor_type;location;lat;lon;timestamp;pressure;altitude;pressure_sealevel;temperature;humidity
42385;BME280;28042;43.986;22.860;2023-06-22T00:00:46;101355.59;;;20.97;100.00
42385;BME280;28042;43.986;22.860;2023-06-22T00:03:12;101330.00;;;20.62;100.00
42385;BME280;28042;43.986;22.860;2023-06-22T00:05:37;101341.38;;;20.48;100.00
42385;BME280;28042;43.986;22.860;2023-06-22T00:08:03;101357.03;;;20.54;100.00
42385;BME280;28042;43.986;22.860;2023-06-22T00:10:32;101336.13;;;20.35;100.00
42385;BME280;28042;43.986;22.860;2023-06-22T00:12:58;101351.06;;;20.34;100.00
42385;BME280;28042;43.986;22.860;2023-06-22T00:15:24;101356.09;;;20.37;100.00
42385;BME280;28042;43.986;22.860;2023-06-22T00:17:50;101366.31;;;20.48;100.00
42385;BME280;28042;43.986;22.860;2023-06-22T00:20:16;101361.03;;;20.47;100.00
42385;BME280;28042;43.986;22.860;2023-06-22T00:22:44;101354.13;;;20.49;100.00
42385;BME280;28042;43.986;22.860;2023-06-22T00:25:09;101317.59;;;20.24;100.00
42385;BME280;28042;43.986;22.860;2023-06-22T00:27:36;101344.16;;;20.37;100.00
42385;BME280;28042;43.986;22.860;2023-06-22T00:30:02;101367.91;;;20.44;100.00
42385;BME280;28042;43.986;22.860;2023-06-22T00:32:28;101339.66;;;20.19;100.00
42385;BME280;28042;43.986;22.860;2023-06-22T00:34:53;101385.41;;;20.33;100.00
42385;BME280;28042;43.986;22.860;2023-06-22T00:37:19;101365.09;;;20.16;100.00
42385;BME280;28042;43.986;22.860;2023-06-22T00:39:44;101384.53;;;20.32;100.00
42385;BME280;28042;43.986;22.860;2023-06-22T00:42:10;101359.56;;;20.16;100.00
42385;BME280;28042;43.986;22.860;2023-06-22T00:44:36;101363.03;;;20.11;100.00
42385;BME280;28042;43.986;22.860;2023-06-22T00:47:02;101392.69;;;20.11;100.00
42385;BME280;28042;43.986;22.860;2023-06-22T00:49:28;101399.78;;;20.07;100.00
42385;BME280;28042;43.986;22.860;2023-06-22T00:51:55;101380.44;;;19.83;100.00
42385;BME280;28042;43.986;22.860;2023-06-22T00:54:21;101380.56;;;19.76;100.00
42385;BME280;28042;43.986;22.860;2023-06-22T00:56:58;101402.59;;;19.71;100.00
42385;BME280;28042;43.986;22.860;2023-06-22T00:59:24;101396.69;;;19.68;100.00
42385;BME280;28042;43.986;22.860;2023-06-22T01:01:51;101423.28;;;19.81;100.00
42385;BME280;28042;43.986;22.860;2023-06-22T01:04:17;101393.81;;;19.63;100.00
42385;BME280;28042;43.986;22.860;2023-06-22T01:06:54;101408.50;;;19.75;100.00
42385;BME280;28042;43.986;22.860;2023-06-22T01:09:29;101373.84;;;19.61;100.00
42385;BME280;28042;43.986;22.860;2023-06-22T01:12:00;101394.06;;;19.73;100.00
42385;BME280;28042;43.986;22.860;2023-06-22T01:14:42;101382.72;;;19.63;100.00
42385;BME280;28042;43.986;22.860;2023-06-22T01:17:09;101382.50;;;19.76;100.00
42385;BME280;28042;43.986;22.860;2023-06-22T01:19:45;101374.06;;;19.71;100.00
42385;BME280;28042;43.986;22.860;2023-06-22T01:22:26;101371.28;;;19.71;100.00
42385;BME280;28042;43.986;22.860;2023-06-22T01:30:07;101388.47;;;19.96;100.00
42385;BME280;28042;43.986;22.860;2023-06-22T01:32:37;101375.38;;;19.92;100.00
42385;BME280;28042;43.986;22.860;2023-06-22T01:35:05;101387.28;;;19.92;100.00
42385;BME280;28042;43.986;22.860;2023-06-22T01:37:33;101394.03;;;19.96;100.00
42385;BME280;28042;43.986;22.860;2023-06-22T01:40:00;101395.47;;;19.99;100.00
42385;BME280;28042;43.986;22.860;2023-06-22T01:42:26;101389.69;;;20.00;100.00
42385;BME280;28042;43.986;22.860;2023-06-22T01:44:53;101386.09;;;20.00;100.00
42385;BME280;28042;43.986;22.860;2023-06-22T01:47:20;101363.59;;;19.85;100.00
42385;BME280;28042;43.986;22.860;2023-06-22T01:49:47;101386.44;;;20.03;100.00
42385;BME280;28042;43.986;22.860;2023-06-22T01:52:13;101374.16;;;19.88;100.00
42385;BME280;28042;43.986;22.860;2023-06-22T01:54:39;101402.94;;;19.98;100.00
42385;BME280;28042;43.986;22.860;2023-06-22T01:57:05;101377.19;;;19.86;100.00
42385;BME280;28042;43.986;22.860;2023-06-22T01:59:35;101397.53;;;19.80;100.00
42385;BME280;28042;43.986;22.860;2023-06-22T02:02:09;101423.44;;;19.74;100.00
42385;BME280;28042;43.986;22.860;2023-06-22T02:04:45;101403.16;;;19.38;100.00
42385;BME280;28042;43.986;22.860;2023-06-22T02:07:14;101418.44;;;19.29;100.00
42385;BME280;28042;43.986;22.860;2023-06-22T02:09:44;101447.16;;;19.28;100.00
42385;BME280;28042;43.986;22.860;2023-06-22T02:12:17;101437.91;;;19.23;100.00
42385;BME280;28042;43.986;22.860;2023-06-22T02:14:44;101408.50;;;18.98;100.00
42385;BME280;28042;43.986;22.860;2023-06-22T02:17:11;101438.00;;;19.16;100.00
42385;BME280;28042;43.986;22.860;2023-06-22T02:19:38;101420.75;;;19.02;100.00
42385;BME280;28042;43.986;22.860;2023-06-22T02:22:04;101443.53;;;19.16;100.00
42385;BME280;28042;43.986;22.860;2023-06-22T02:24:30;101412.69;;;19.01;100.00
42385;BME280;28042;43.986;22.860;2023-06-22T02:27:01;101443.63;;;19.09;100.00
42385;BME280;28042;43.986;22.860;2023-06-22T02:29:28;101416.03;;;18.91;100.00
42385;BME280;28042;43.986;22.860;2023-06-22T02:31:54;101426.13;;;18.85;100.00
42385;BME280;28042;43.986;22.860;2023-06-22T02:34:20;101440.34;;;19.01;100.00
42385;BME280;28042;43.986;22.860;2023-06-22T02:36:47;101418.91;;;18.84;100.00
42385;BME280;28042;43.986;22.860;2023-06-22T02:39:23;101451.16;;;18.90;100.00
42385;BME280;28042;43.986;22.860;2023-06-22T02:41:50;101456.31;;;18.87;100.00
42385;BME280;28042;43.986;22.860;2023-06-22T02:44:16;101431.75;;;18.79;100.00
42385;BME280;28042;43.986;22.860;2023-06-22T02:46:42;101457.66;;;18.96;100.00
42385;BME280;28042;43.986;22.860;2023-06-22T02:49:08;101452.38;;;18.95;100.00
42385;BME280;28042;43.986;22.860;2023-06-22T02:51:34;101449.81;;;18.93;100.00
42385;BME280;28042;43.986;22.860;2023-06-22T02:54:00;101454.66;;;18.98;100.00
42385;BME280;28042;43.986;22.860;2023-06-22T02:56:25;101457.91;;;18.95;100.00
42385;BME280;28042;43.986;22.860;2023-06-22T02:58:51;101450.78;;;18.87;100.00
42385;BME280;28042;43.986;22.860;2023-06-22T03:01:17;101464.09;;;18.78;100.00
42385;BME280;28042;43.986;22.860;2023-06-22T03:03:48;101435.09;;;18.69;100.00
42385;BME280;28042;43.986;22.860;2023-06-22T03:06:13;101432.94;;;18.71;100.00
42385;BME280;28042;43.986;22.860;2023-06-22T03:08:39;101430.16;;;18.71;100.00
42385;BME280;28042;43.986;22.860;2023-06-22T03:11:07;101439.34;;;18.83;100.00
42385;BME280;28042;43.986;22.860;2023-06-22T03:13:33;101444.41;;;18.86;100.00
42385;BME280;28042;43.986;22.860;2023-06-22T03:15:58;101440.56;;;18.87;100.00
42385;BME280;28042;43.986;22.860;2023-06-22T03:18:24;101436.84;;;18.93;100.00
42385;BME280;28042;43.986;22.860;2023-06-22T03:20:49;101455.34;;;19.23;100.00
42385;BME280;28042;43.986;22.860;2023-06-22T03:23:15;101460.72;;;19.18;100.00
42385;BME280;28042;43.986;22.860;2023-06-22T03:25:41;101448.25;;;19.27;100.00
42385;BME280;28042;43.986;22.860;2023-06-22T03:28:07;101444.53;;;19.33;100.00
42385;BME280;28042;43.986;22.860;2023-06-22T03:30:32;101424.34;;;19.44;100.00
42385;BME280;28042;43.986;22.860;2023-06-22T03:32:58;101414.53;;;19.84;100.00
42385;BME280;28042;43.986;22.860;2023-06-22T03:35:23;101413.44;;;20.48;100.00
42385;BME280;28042;43.986;22.860;2023-06-22T03:37:49;101411.09;;;21.14;100.00
42385;BME280;28042;43.986;22.860;2023-06-22T03:40:14;101431.16;;;21.66;100.00
42385;BME280;28042;43.986;22.860;2023-06-22T03:42:39;101429.41;;;21.99;100.00
42385;BME280;28042;43.986;22.860;2023-06-22T03:45:05;101416.97;;;22.23;100.00
42385;BME280;28042;43.986;22.860;2023-06-22T03:47:32;101386.94;;;22.20;100.00
42385;BME280;28042;43.986;22.860;2023-06-22T03:49:57;101405.41;;;22.32;100.00
42385;BME280;28042;43.986;22.860;2023-06-22T03:52:23;101423.47;;;22.51;100.00
42385;BME280;28042;43.986;22.860;2023-06-22T03:54:48;101410.03;;;22.04;100.00
42385;BME280;28042;43.986;22.860;2023-06-22T03:57:14;101412.56;;;21.89;100.00
42385;BME280;28042;43.986;22.860;2023-06-22T03:59:39;101425.59;;;21.66;100.00
42385;BME280;28042;43.986;22.860;2023-06-22T04:02:05;101448.81;;;21.77;100.00
42385;BME280;28042;43.986;22.860;2023-06-22T04:04:30;101436.13;;;21.64;100.00
42385;BME280;28042;43.986;22.860;2023-06-22T04:06:56;101420.56;;;21.63;100.00
42385;BME280;28042;43.986;22.860;2023-06-22T04:09:21;101427.53;;;21.49;100.00
42385;BME280;28042;43.986;22.860;2023-06-22T04:11:47;101425.91;;;21.36;100.00
42385;BME280;28042;43.986;22.860;2023-06-22T04:14:13;101427.38;;;21.10;100.00
42385;BME280;28042;43.986;22.860;2023-06-22T04:16:38;101457.13;;;20.98;100.00
42385;BME280;28042;43.986;22.860;2023-06-22T04:19:04;101463.38;;;20.77;100.00
42385;BME280;28042;43.986;22.860;2023-06-22T04:21:29;101446.38;;;20.45;100.00
42385;BME280;28042;43.986;22.860;2023-06-22T04:23:55;101467.91;;;20.43;100.00
42385;BME280;28042;43.986;22.860;2023-06-22T04:26:20;101445.53;;;20.21;100.00
42385;BME280;28042;43.986;22.860;2023-06-22T04:28:49;101469.97;;;20.36;100.00
42385;BME280;28042;43.986;22.860;2023-06-22T04:31:21;101454.59;;;20.16;100.00
42385;BME280;28042;43.986;22.860;2023-06-22T04:33:46;101478.44;;;20.17;100.00
42385;BME280;28042;43.986;22.860;2023-06-22T04:36:12;101508.56;;;20.25;100.00
42385;BME280;28042;43.986;22.860;2023-06-22T04:38:39;101515.66;;;20.21;100.00
42385;BME280;28042;43.986;22.860;2023-06-22T04:41:04;101510.22;;;20.15;100.00
42385;BME280;28042;43.986;22.860;2023-06-22T04:43:30;101520.84;;;20.18;100.00
42385;BME280;28042;43.986;22.860;2023-06-22T04:45:56;101519.50;;;20.20;100.00
42385;BME280;28042;43.986;22.860;2023-06-22T04:48:28;101495.78;;;20.13;100.00
42385;BME280;28042;43.986;22.860;2023-06-22T04:50:58;101517.19;;;20.41;100.00
42385;BME280;28042;43.986;22.860;2023-06-22T04:53:31;101483.34;;;20.50;100.00
42385;BME280;28042;43.986;22.860;2023-06-22T04:55:56;101523.16;;;20.84;100.00
42385;BME280;28042;43.986;22.860;2023-06-22T04:58:22;101524.00;;;20.85;100.00
42385;BME280;28042;43.986;22.860;2023-06-22T05:00:48;101526.38;;;20.93;100.00
42385;BME280;28042;43.986;22.860;2023-06-22T05:03:17;101492.81;;;20.66;100.00
42385;BME280;28042;43.986;22.860;2023-06-22T05:05:43;101505.72;;;20.72;100.00
42385;BME280;28042;43.986;22.860;2023-06-22T05:08:09;101506.47;;;20.68;100.00
42385;BME280;28042;43.986;22.860;2023-06-22T05:10:34;101535.78;;;20.92;100.00
42385;BME280;28042;43.986;22.860;2023-06-22T05:13:00;101547.88;;;20.86;100.00
42385;BME280;28042;43.986;22.860;2023-06-22T05:15:25;101531.72;;;20.83;100.00
42385;BME280;28042;43.986;22.860;2023-06-22T05:17:55;101548.44;;;21.00;100.00
42385;BME280;28042;43.986;22.860;2023-06-22T05:20:21;101552.69;;;20.91;100.00
42385;BME280;28042;43.986;22.860;2023-06-22T05:22:47;101545.41;;;21.01;100.00
42385;BME280;28042;43.986;22.860;2023-06-22T05:25:13;101550.53;;;21.21;100.00
42385;BME280;28042;43.986;22.860;2023-06-22T05:27:38;101546.81;;;21.15;100.00
42385;BME280;28042;43.986;22.860;2023-06-22T05:30:08;101552.56;;;21.26;100.00
42385;BME280;28042;43.986;22.860;2023-06-22T05:32:37;101520.31;;;21.36;100.00
42385;BME280;28042;43.986;22.860;2023-06-22T05:35:03;101543.25;;;21.94;100.00
42385;BME280;28042;43.986;22.860;2023-06-22T05:37:29;101545.53;;;22.69;100.00
42385;BME280;28042;43.986;22.860;2023-06-22T05:39:55;101519.84;;;23.06;100.00
42385;BME280;28042;43.986;22.860;2023-06-22T05:42:22;101539.97;;;23.13;100.00
42385;BME280;28042;43.986;22.860;2023-06-22T05:44:47;101524.53;;;23.81;100.00
42385;BME280;28042;43.986;22.860;2023-06-22T05:47:13;101487.91;;;24.57;100.00
42385;BME280;28042;43.986;22.860;2023-06-22T05:49:38;101512.50;;;25.58;100.00
42385;BME280;28042;43.986;22.860;2023-06-22T05:52:04;101505.75;;;26.51;96.26
42385;BME280;28042;43.986;22.860;2023-06-22T05:54:30;101505.66;;;26.76;91.83
42385;BME280;28042;43.986;22.860;2023-06-22T05:56:56;101502.00;;;27.30;87.75
42385;BME280;28042;43.986;22.860;2023-06-22T05:59:21;101508.84;;;27.93;84.02
42385;BME280;28042;43.986;22.860;2023-06-22T06:01:47;101471.91;;;28.38;80.30
42385;BME280;28042;43.986;22.860;2023-06-22T06:04:18;101497.69;;;28.64;78.88
42385;BME280;28042;43.986;22.860;2023-06-22T06:06:44;101478.34;;;28.63;74.63
42385;BME280;28042;43.986;22.860;2023-06-22T06:09:13;101498.81;;;28.87;73.21
42385;BME280;28042;43.986;22.860;2023-06-22T06:11:38;101490.13;;;29.45;70.51
42385;BME280;28042;43.986;22.860;2023-06-22T06:14:04;101502.28;;;29.22;68.86
42385;BME280;28042;43.986;22.860;2023-06-22T06:16:29;101498.28;;;28.85;71.41
42385;BME280;28042;43.986;22.860;2023-06-22T06:18:55;101511.03;;;29.20;68.64
42385;BME280;28042;43.986;22.860;2023-06-22T06:21:22;101485.88;;;29.29;67.43
42385;BME280;28042;43.986;22.860;2023-06-22T06:23:47;101495.28;;;29.57;65.24
42385;BME280;28042;43.986;22.860;2023-06-22T06:26:13;101496.97;;;29.91;62.17
42385;BME280;28042;43.986;22.860;2023-06-22T06:28:41;101495.41;;;30.58;60.11
42385;BME280;28042;43.986;22.860;2023-06-22T06:31:07;101489.81;;;31.81;55.11
42385;BME280;28042;43.986;22.860;2023-06-22T06:33:34;101482.19;;;32.43;54.28
42385;BME280;28042;43.986;22.860;2023-06-22T06:35:59;101465.31;;;32.29;52.11
42385;BME280;28042;43.986;22.860;2023-06-22T06:38:27;101466.09;;;32.44;51.44
42385;BME280;28042;43.986;22.860;2023-06-22T06:40:54;101476.44;;;30.50;55.71
42385;BME280;28042;43.986;22.860;2023-06-22T06:43:19;101470.81;;;30.78;57.21
42385;BME280;28042;43.986;22.860;2023-06-22T06:45:44;101458.88;;;29.47;58.75
42385;BME280;28042;43.986;22.860;2023-06-22T06:48:10;101460.28;;;29.49;58.85
42385;BME280;28042;43.986;22.860;2023-06-22T06:50:36;101466.84;;;29.59;59.68
42385;BME280;28042;43.986;22.860;2023-06-22T06:53:01;101477.59;;;29.38;59.55
42385;BME280;28042;43.986;22.860;2023-06-22T06:55:26;101457.03;;;28.38;63.44
42385;BME280;28042;43.986;22.860;2023-06-22T06:57:58;101483.47;;;28.32;65.25
42385;BME280;28042;43.986;22.860;2023-06-22T07:00:25;101471.22;;;27.94;67.42
42385;BME280;28042;43.986;22.860;2023-06-22T07:02:51;101499.38;;;27.83;69.22
42385;BME280;28042;43.986;22.860;2023-06-22T07:05:16;101498.38;;;27.69;69.75
42385;BME280;28042;43.986;22.860;2023-06-22T07:07:41;101490.50;;;27.71;70.25
42385;BME280;28042;43.986;22.860;2023-06-22T07:10:08;101499.16;;;27.36;71.37
42385;BME280;28042;43.986;22.860;2023-06-22T07:12:34;101498.09;;;27.31;72.80
42385;BME280;28042;43.986;22.860;2023-06-22T07:15:07;101515.84;;;27.56;71.94
42385;BME280;28042;43.986;22.860;2023-06-22T07:17:37;101516.38;;;27.58;71.55
42385;BME280;28042;43.986;22.860;2023-06-22T07:20:03;101497.66;;;27.87;71.56
42385;BME280;28042;43.986;22.860;2023-06-22T07:22:33;101482.94;;;27.32;72.43
42385;BME280;28042;43.986;22.860;2023-06-22T07:24:59;101512.34;;;27.35;72.51
42385;BME280;28042;43.986;22.860;2023-06-22T07:27:24;101481.84;;;27.28;72.60
42385;BME280;28042;43.986;22.860;2023-06-22T07:29:50;101510.19;;;27.66;71.72
42385;BME280;28042;43.986;22.860;2023-06-22T07:32:15;101492.94;;;27.44;71.52
42385;BME280;28042;43.986;22.860;2023-06-22T07:34:41;101511.84;;;27.62;71.40
42385;BME280;28042;43.986;22.860;2023-06-22T07:37:06;101487.44;;;27.73;70.08
42385;BME280;28042;43.986;22.860;2023-06-22T07:39:32;101499.94;;;27.46;69.46
42385;BME280;28042;43.986;22.860;2023-06-22T07:41:57;101494.00;;;27.53;70.46
42385;BME280;28042;43.986;22.860;2023-06-22T07:44:23;101483.28;;;27.60;69.89
42385;BME280;28042;43.986;22.860;2023-06-22T07:46:49;101468.66;;;27.68;70.15
42385;BME280;28042;43.986;22.860;2023-06-22T07:49:14;101470.78;;;28.10;67.55
42385;BME280;28042;43.986;22.860;2023-06-22T07:51:40;101452.13;;;27.96;69.93
42385;BME280;28042;43.986;22.860;2023-06-22T07:54:05;101446.72;;;27.75;70.42
42385;BME280;28042;43.986;22.860;2023-06-22T07:56:31;101470.56;;;28.07;71.06
42385;BME280;28042;43.986;22.860;2023-06-22T07:58:58;101483.25;;;28.23;68.27
42385;BME280;28042;43.986;22.860;2023-06-22T08:01:24;101451.63;;;27.88;66.65
42385;BME280;28042;43.986;22.860;2023-06-22T08:03:49;101483.84;;;28.20;65.99
42385;BME280;28042;43.986;22.860;2023-06-22T08:06:15;101464.00;;;28.16;65.36
42385;BME280;28042;43.986;22.860;2023-06-22T08:08:41;101466.22;;;28.43;65.34
42385;BME280;28042;43.986;22.860;2023-06-22T08:11:08;101458.38;;;28.64;65.20
42385;BME280;28042;43.986;22.860;2023-06-22T08:13:33;101475.53;;;29.06;64.83
42385;BME280;28042;43.986;22.860;2023-06-22T08:15:58;101446.63;;;28.81;62.82
42385;BME280;28042;43.986;22.860;2023-06-22T08:18:24;101470.41;;;28.89;63.42
42385;BME280;28042;43.986;22.860;2023-06-22T08:20:49;101482.66;;;29.17;64.25
42385;BME280;28042;43.986;22.860;2023-06-22T08:23:15;101490.56;;;29.52;61.00
42385;BME280;28042;43.986;22.860;2023-06-22T08:25:41;101482.81;;;29.44;61.06
42385;BME280;28042;43.986;22.860;2023-06-22T08:28:06;101459.19;;;29.26;60.99
42385;BME280;28042;43.986;22.860;2023-06-22T08:30:32;101459.06;;;29.55;60.39
42385;BME280;28042;43.986;22.860;2023-06-22T08:32:58;101482.34;;;29.75;59.12
42385;BME280;28042;43.986;22.860;2023-06-22T08:35:23;101481.19;;;30.08;58.68
42385;BME280;28042;43.986;22.860;2023-06-22T08:37:49;101454.09;;;30.40;57.72
42385;BME280;28042;43.986;22.860;2023-06-22T08:40:18;101472.78;;;30.36;57.39
42385;BME280;28042;43.986;22.860;2023-06-22T08:42:45;101473.69;;;30.18;58.17
42385;BME280;28042;43.986;22.860;2023-06-22T08:45:11;101480.75;;;29.69;60.03
42385;BME280;28042;43.986;22.860;2023-06-22T08:47:37;101483.22;;;29.89;59.92
42385;BME280;28042;43.986;22.860;2023-06-22T08:50:04;101483.03;;;29.99;60.63
42385;BME280;28042;43.986;22.860;2023-06-22T08:52:30;101481.09;;;29.81;61.33
42385;BME280;28042;43.986;22.860;2023-06-22T08:54:55;101455.16;;;29.51;60.96
42385;BME280;28042;43.986;22.860;2023-06-22T08:57:21;101445.84;;;29.70;60.57
42385;BME280;28042;43.986;22.860;2023-06-22T08:59:47;101469.09;;;30.22;59.02
42385;BME280;28042;43.986;22.860;2023-06-22T09:02:12;101444.34;;;30.05;59.98
42385;BME280;28042;43.986;22.860;2023-06-22T09:04:38;101444.91;;;30.21;58.94
42385;BME280;28042;43.986;22.860;2023-06-22T09:07:04;101454.91;;;30.13;59.15
42385;BME280;28042;43.986;22.860;2023-06-22T09:09:29;101454.94;;;30.27;59.79
42385;BME280;28042;43.986;22.860;2023-06-22T09:11:55;101443.03;;;30.30;58.34
42385;BME280;28042;43.986;22.860;2023-06-22T09:14:20;101434.06;;;30.55;60.13
42385;BME280;28042;43.986;22.860;2023-06-22T09:16:46;101459.31;;;30.33;60.64
42385;BME280;28042;43.986;22.860;2023-06-22T09:19:11;101435.63;;;30.06;61.81
42385;BME280;28042;43.986;22.860;2023-06-22T09:21:37;101459.38;;;29.68;63.27
42385;BME280;28042;43.986;22.860;2023-06-22T09:24:03;101436.16;;;29.43;64.01
42385;BME280;28042;43.986;22.860;2023-06-22T09:26:28;101449.72;;;29.74;65.71
42385;BME280;28042;43.986;22.860;2023-06-22T09:28:54;101454.09;;;30.54;62.57
42385;BME280;28042;43.986;22.860;2023-06-22T09:31:19;101453.56;;;30.38;61.25
42385;BME280;28042;43.986;22.860;2023-06-22T09:33:51;101442.09;;;30.21;61.09
42385;BME280;28042;43.986;22.860;2023-06-22T09:36:17;101421.72;;;29.96;61.74
42385;BME280;28042;43.986;22.860;2023-06-22T09:38:43;101443.88;;;30.30;62.14
42385;BME280;28042;43.986;22.860;2023-06-22T09:41:08;101444.28;;;30.79;61.28
42385;BME280;28042;43.986;22.860;2023-06-22T09:43:34;101441.00;;;30.99;60.19
42385;BME280;28042;43.986;22.860;2023-06-22T09:46:00;101435.84;;;31.15;59.05
42385;BME280;28042;43.986;22.860;2023-06-22T09:48:27;101444.94;;;31.12;59.47
42385;BME280;28042;43.986;22.860;2023-06-22T09:50:54;101448.56;;;31.26;59.25
42385;BME280;28042;43.986;22.860;2023-06-22T09:53:20;101452.75;;;31.29;59.78
42385;BME280;28042;43.986;22.860;2023-06-22T09:55:46;101454.41;;;31.16;58.55
42385;BME280;28042;43.986;22.860;2023-06-22T09:58:12;101428.81;;;30.90;60.67
42385;BME280;28042;43.986;22.860;2023-06-22T10:00:37;101459.66;;;31.45;59.89
42385;BME280;28042;43.986;22.860;2023-06-22T10:03:03;101467.16;;;31.13;60.55
42385;BME280;28042;43.986;22.860;2023-06-22T10:05:28;101458.41;;;31.01;59.76
42385;BME280;28042;43.986;22.860;2023-06-22T10:07:55;101440.31;;;30.93;60.54
42385;BME280;28042;43.986;22.860;2023-06-22T10:10:20;101465.28;;;31.67;57.93
42385;BME280;28042;43.986;22.860;2023-06-22T10:12:47;101457.28;;;31.83;57.18
42385;BME280;28042;43.986;22.860;2023-06-22T10:15:14;101438.34;;;31.61;56.46
42385;BME280;28042;43.986;22.860;2023-06-22T10:17:40;101460.72;;;32.02;56.95
42385;BME280;28042;43.986;22.860;2023-06-22T10:20:06;101465.59;;;32.42;54.72
42385;BME280;28042;43.986;22.860;2023-06-22T10:22:42;101463.31;;;31.90;55.26
42385;BME280;28042;43.986;22.860;2023-06-22T10:25:08;101444.78;;;31.53;55.09
42385;BME280;28042;43.986;22.860;2023-06-22T10:27:34;101437.69;;;31.56;58.78
42385;BME280;28042;43.986;22.860;2023-06-22T10:30:00;101460.63;;;32.16;56.25
42385;BME280;28042;43.986;22.860;2023-06-22T10:32:25;101431.06;;;32.22;54.41
42385;BME280;28042;43.986;22.860;2023-06-22T10:34:51;101430.66;;;32.38;54.07
42385;BME280;28042;43.986;22.860;2023-06-22T10:37:16;101440.78;;;32.39;53.79
42385;BME280;28042;43.986;22.860;2023-06-22T10:39:42;101439.47;;;32.05;54.55
42385;BME280;28042;43.986;22.860;2023-06-22T10:42:07;101447.81;;;32.50;54.58
42385;BME280;28042;43.986;22.860;2023-06-22T10:44:33;101451.84;;;32.66;53.35
42385;BME280;28042;43.986;22.860;2023-06-22T10:46:58;101444.16;;;32.41;53.57
42385;BME280;28042;43.986;22.860;2023-06-22T10:49:24;101438.25;;;31.89;55.21
42385;BME280;28042;43.986;22.860;2023-06-22T10:51:49;101445.34;;;32.17;52.76
42385;BME280;28042;43.986;22.860;2023-06-22T10:54:14;101416.44;;;32.20;52.06
42385;BME280;28042;43.986;22.860;2023-06-22T10:56:43;101448.00;;;32.22;52.10
42385;BME280;28042;43.986;22.860;2023-06-22T10:59:08;101445.91;;;31.97;53.36
42385;BME280;28042;43.986;22.860;2023-06-22T11:01:34;101434.75;;;31.92;53.63
42385;BME280;28042;43.986;22.860;2023-06-22T11:03:59;101460.81;;;31.44;54.77
42385;BME280;28042;43.986;22.860;2023-06-22T11:06:25;101459.66;;;31.22;56.63
42385;BME280;28042;43.986;22.860;2023-06-22T11:08:50;101457.44;;;31.19;56.50
42385;BME280;28042;43.986;22.860;2023-06-22T11:11:16;101445.47;;;31.00;58.29
42385;BME280;28042;43.986;22.860;2023-06-22T11:13:43;101439.91;;;30.86;57.90
42385;BME280;28042;43.986;22.860;2023-06-22T11:16:09;101445.31;;;30.83;57.75
42385;BME280;28042;43.986;22.860;2023-06-22T11:18:35;101439.91;;;30.73;58.88
42385;BME280;28042;43.986;22.860;2023-06-22T11:21:01;101458.91;;;30.26;60.52
42385;BME280;28042;43.986;22.860;2023-06-22T11:23:26;101430.63;;;29.71;62.03
42385;BME280;28042;43.986;22.860;2023-06-22T11:25:53;101456.69;;;29.63;63.65
42385;BME280;28042;43.986;22.860;2023-06-22T11:28:18;101440.84;;;29.67;66.00
42385;BME280;28042;43.986;22.860;2023-06-22T11:30:44;101430.47;;;29.81;64.34
42385;BME280;28042;43.986;22.860;2023-06-22T11:33:09;101442.38;;;30.05;64.49
42385;BME280;28042;43.986;22.860;2023-06-22T11:35:35;101452.53;;;30.20;63.50
42385;BME280;28042;43.986;22.860;2023-06-22T11:38:00;101435.00;;;30.37;62.50
42385;BME280;28042;43.986;22.860;2023-06-22T11:40:25;101438.56;;;30.43;63.01
42385;BME280;28042;43.986;22.860;2023-06-22T11:42:51;101444.53;;;30.41;62.67
42385;BME280;28042;43.986;22.860;2023-06-22T11:45:17;101444.53;;;30.41;63.73
42385;BME280;28042;43.986;22.860;2023-06-22T11:47:43;101450.25;;;30.08;63.47
42385;BME280;28042;43.986;22.860;2023-06-22T11:50:09;101447.78;;;30.02;64.80
42385;BME280;28042;43.986;22.860;2023-06-22T11:52:34;101424.81;;;29.67;64.71
42385;BME280;28042;43.986;22.860;2023-06-22T11:55:01;101446.78;;;30.11;65.17
42385;BME280;28042;43.986;22.860;2023-06-22T11:57:30;101449.31;;;30.27;63.81
42385;BME280;28042;43.986;22.860;2023-06-22T11:59:55;101434.56;;;30.02;65.03
42385;BME280;28042;43.986;22.860;2023-06-22T12:02:20;101443.88;;;30.17;64.76
42385;BME280;28042;43.986;22.860;2023-06-22T12:04:46;101437.84;;;30.37;63.57
42385;BME280;28042;43.986;22.860;2023-06-22T12:07:11;101418.13;;;30.09;65.12
42385;BME280;28042;43.986;22.860;2023-06-22T12:09:37;101434.28;;;30.18;65.14
42385;BME280;28042;43.986;22.860;2023-06-22T12:12:03;101422.59;;;30.10;65.80
42385;BME280;28042;43.986;22.860;2023-06-22T12:14:29;101412.19;;;30.25;65.86
42385;BME280;28042;43.986;22.860;2023-06-22T12:16:54;101407.91;;;30.41;63.92
42385;BME280;28042;43.986;22.860;2023-06-22T12:19:20;101436.13;;;30.63;63.76
42385;BME280;28042;43.986;22.860;2023-06-22T12:21:45;101401.94;;;30.56;63.72
42385;BME280;28042;43.986;22.860;2023-06-22T12:24:11;101409.22;;;30.57;63.19
42385;BME280;28042;43.986;22.860;2023-06-22T12:26:36;101425.97;;;30.67;63.92
42385;BME280;28042;43.986;22.860;2023-06-22T12:29:02;101413.59;;;30.63;65.16
42385;BME280;28042;43.986;22.860;2023-06-22T12:31:27;101391.94;;;30.50;63.83
42385;BME280;28042;43.986;22.860;2023-06-22T12:33:53;101421.34;;;30.72;63.70
42385;BME280;28042;43.986;22.860;2023-06-22T12:36:18;101411.13;;;30.76;63.90